createdAt,value
2022-11-15T01:25:08.377Z,98147.42
2022-11-15T01:27:55.068Z,98141.06
2022-11-15T01:30:41.685Z,98138.92
2022-11-15T01:33:29.666Z,98136.27
2022-11-15T01:36:19.806Z,98134.05
2022-11-15T01:39:06.025Z,98128.67
2022-11-15T01:41:52.705Z,98120.66
2022-11-15T01:44:43.469Z,98122.33
2022-11-15T01:47:38.662Z,98120.13
2022-11-15T01:50:32.006Z,98114.02
2022-11-15T01:53:21.081Z,98116.55
2022-11-15T01:56:12.114Z,98116.67
2022-11-15T01:59:04.017Z,98110.44
2022-11-15T02:01:50.863Z,98109.08
2022-11-15T02:04:42.623Z,98105.05
2022-11-15T02:07:30.731Z,98102.09
2022-11-15T02:10:23.558Z,98104.05
2022-11-15T02:13:10.041Z,98104.23
2022-11-15T02:16:19.246Z,98098.34
2022-11-15T02:19:23.248Z,98101.94
2022-11-15T02:22:37.397Z,98101.72
2022-11-15T02:25:49.974Z,98100.94
2022-11-15T02:28:59.596Z,98100.54
2022-11-15T02:32:07.746Z,98104.40
2022-11-15T02:35:06.319Z,98108.09
2022-11-15T02:37:58.314Z,98104.64
2022-11-15T02:41:13.441Z,98105.71
2022-11-15T02:44:35.899Z,98106.16
2022-11-15T02:47:24.325Z,98099.92
2022-11-15T02:50:17.232Z,98096.05
2022-11-15T02:53:04.384Z,98101.37
2022-11-15T02:55:55.561Z,98104.25
2022-11-15T02:59:20.599Z,98098.16
2022-11-15T03:02:23.520Z,98102.52
2022-11-15T03:05:43.389Z,98109.28
2022-11-15T03:08:52.586Z,98110.98
2022-11-15T03:11:46.389Z,98107.56
2022-11-15T03:14:44.375Z,98110.59
2022-11-15T03:17:37.139Z,98108.29
2022-11-15T03:20:26.121Z,98106.88
2022-11-15T03:23:12.698Z,98109.77
2022-11-15T03:26:01.882Z,98106.59
2022-11-15T03:29:03.531Z,98103.06
2022-11-15T03:31:56.722Z,98094.37
2022-11-15T03:34:47.134Z,98095.43
2022-11-15T03:37:43.761Z,98096.59
2022-11-15T03:41:00.777Z,98093.44
2022-11-15T03:44:05.825Z,98094.80
2022-11-15T03:47:13.508Z,98088.27
2022-11-15T03:50:06.282Z,98087.13
2022-11-15T03:52:55.546Z,98081.85
2022-11-15T03:55:42.102Z,98077.73
2022-11-15T03:58:28.624Z,98071.58
2022-11-15T04:01:15.071Z,98069.01
2022-11-15T04:04:01.757Z,98065.80
2022-11-15T04:06:48.329Z,98065.98
2022-11-15T04:09:34.767Z,98066.69
2022-11-15T04:12:31.830Z,98066.45
2022-11-15T04:15:24.594Z,98065.52
2022-11-15T04:18:10.872Z,98064.23
2022-11-15T04:21:15.577Z,98065.44
2022-11-15T04:24:08.256Z,98065.50
2022-11-15T04:26:54.625Z,98065.23
2022-11-15T04:29:41.037Z,98063.86
2022-11-15T04:32:27.584Z,98064.64
2022-11-15T04:35:14.386Z,98067.61
2022-11-15T04:38:01.805Z,98065.95
2022-11-15T04:40:48.168Z,98060.55
2022-11-15T04:43:34.862Z,98057.71
2022-11-15T04:46:22.553Z,98058.38
2022-11-15T04:49:08.797Z,98055.27
2022-11-15T04:51:55.564Z,98053.36
2022-11-15T04:54:43.255Z,98049.55
2022-11-15T04:57:29.992Z,98049.58
2022-11-15T05:00:18.024Z,98053.73
2022-11-15T05:03:22.954Z,98051.54
2022-11-15T05:06:09.130Z,98051.08
2022-11-15T05:08:56.249Z,98049.31
2022-11-15T05:11:43.423Z,98054.71
2022-11-15T05:14:30.332Z,98056.83
2022-11-15T05:17:16.537Z,98054.86
2022-11-15T05:20:03.106Z,98055.30
2022-11-15T05:22:49.417Z,98046.25
2022-11-15T05:25:37.212Z,98046.38
2022-11-15T05:28:38.524Z,98048.18
2022-11-15T05:31:27.546Z,98051.04
2022-11-15T05:34:14.214Z,98059.27
2022-11-15T05:37:00.651Z,98054.75
2022-11-15T05:39:47.386Z,98055.83
2022-11-15T05:42:33.661Z,98057.98
2022-11-15T05:45:26.525Z,98051.16
2022-11-15T05:48:13.687Z,98049.09
2022-11-15T05:51:00.850Z,98041.34
2022-11-15T05:53:47.917Z,98041.27
2022-11-15T05:56:34.151Z,98046.04
2022-11-15T05:59:21.217Z,98050.90
2022-11-15T06:02:07.736Z,98050.72
2022-11-15T06:04:54.353Z,98047.86
2022-11-15T06:07:40.684Z,98045.23
2022-11-15T06:10:27.406Z,98039.08
2022-11-15T06:13:13.597Z,98039.38
2022-11-15T06:16:00.552Z,98046.10
2022-11-15T06:18:46.984Z,98047.83
2022-11-15T06:21:33.132Z,98048.52
2022-11-15T06:24:19.748Z,98050.05
2022-11-15T06:27:06.259Z,98050.27
2022-11-15T06:29:52.806Z,98052.91
2022-11-15T06:32:39.233Z,98055.91
2022-11-15T06:35:25.879Z,98049.92
2022-11-15T06:38:12.661Z,98048.40
2022-11-15T06:41:07.462Z,98049.70
2022-11-15T06:43:54.147Z,98049.75
2022-11-15T06:46:40.801Z,98054.09
2022-11-15T06:49:27.170Z,98052.51
